Time;durP1;ratioP1;P1;durP2;ratioP2;P2;SDS_P1;SDS_P2;PMS_P1;PMS_P2;Temp;Humidity;BMP_temperature;BMP_pressure;BME280_temperature;BME280_humidity;BME280_pressure;Samples;Min_cycle;Max_cycle;Signal;HPM_P1;HPM_P2
2023/03/23 00:00:13;;;;;;;1.95;0.68;;;;;;;;;;8312033;28;20060;-63
2023/03/23 00:04:13;;;;;;;1.25;0.70;;;;;;;;;;8314423;28;20017;-63
2023/03/23 00:08:15;;;;;;;1.10;0.80;;;;;;;;;;8312536;28;20152;-63
2023/03/23 00:12:15;;;;;;;0.80;0.80;;;;;;;;;;8312780;28;20138;-63
2023/03/23 00:16:18;;;;;;;1.02;0.70;;;;;;;;;;8312222;28;20041;-63
2023/03/23 00:20:18;;;;;;;1.40;0.63;;;;;;;;;;8312022;28;20025;-63
2023/03/23 00:24:19;;;;;;;0.68;0.68;;;;;;;;;;8313728;28;20017;-63
2023/03/23 00:28:24;;;;;;;1.85;0.70;;;;;;;;;;8313654;28;20052;-63
2023/03/23 00:32:28;;;;;;;1.00;0.80;;;;;;;;;;8312639;28;20044;-63
2023/03/23 00:36:28;;;;;;;;;;;;;;;;;;8312735;28;20033;-63
2023/03/23 00:40:28;;;;;;;0.73;0.70;;;;;;;;;;8311329;28;20630;-63
2023/03/23 00:44:30;;;;;;;1.63;0.77;;;;;;;;;;8310766;28;20470;-63
2023/03/23 00:48:32;;;;;;;1.05;0.80;;;;;;;;;;8310372;28;20047;-63
2023/03/23 00:52:32;;;;;;;0.98;0.85;;;;;;;;;;8311827;28;20055;-63
2023/03/23 00:56:33;;;;;;;1.15;0.68;;;;;;;;;;8315887;28;20033;-63
2023/03/23 01:00:33;;;;;;;1.05;0.90;;;;;;;;;;8309495;28;20655;-63
2023/03/23 01:04:36;;;;;;;0.98;0.80;;;;;;;;;;8311934;28;20112;-63
2023/03/23 01:08:39;;;;;;;1.75;0.80;;;;;;;;;;8315441;28;20017;-63
2023/03/23 01:12:39;;;;;;;1.17;0.77;;;;;;;;;;8319947;28;20032;-63
2023/03/23 01:16:39;;;;;;;2.35;0.80;;;;;;;;;;8317330;28;20665;-63
2023/03/23 01:20:41;;;;;;;0.85;0.85;;;;;;;;;;8317161;28;20107;-63
2023/03/23 01:24:41;;;;;;;0.70;0.70;;;;;;;;;;8316446;28;20068;-63
2023/03/23 01:28:42;;;;;;;2.42;0.90;;;;;;;;;;8315079;28;21045;-64
2023/03/23 01:32:42;;;;;;;1.23;1.05;;;;;;;;;;8313672;28;20128;-64
2023/03/23 01:36:42;;;;;;;1.15;1.00;;;;;;;;;;8313633;28;20025;-63
2023/03/23 01:40:43;;;;;;;3.35;1.05;;;;;;;;;;8312688;28;20036;-63
2023/03/23 01:44:46;;;;;;;0.98;0.90;;;;;;;;;;8314958;28;20022;-63
2023/03/23 01:48:46;;;;;;;1.13;1.00;;;;;;;;;;8313066;28;20908;-63
2023/03/23 01:52:46;;;;;;;1.10;1.00;;;;;;;;;;8315903;28;20079;-63
2023/03/23 01:57:07;;;;;;;2.70;0.90;;;;;;;;;;8313933;28;20451;-63
2023/03/23 02:01:11;;;;;;;1.60;0.90;;;;;;;;;;8312643;28;20068;-63
2023/03/23 02:05:13;;;;;;;0.90;0.90;;;;;;;;;;8297145;28;20036;-63
2023/03/23 02:09:16;;;;;;;3.40;1.05;;;;;;;;;;8315491;28;20028;-63
2023/03/23 02:13:17;;;;;;;2.53;0.90;;;;;;;;;;8313792;28;20056;-63
2023/03/23 02:17:17;;;;;;;1.63;1.00;;;;;;;;;;8312824;28;20413;-63
2023/03/23 02:21:32;;;;;;;1.50;0.90;;;;;;;;;;8311824;28;20028;-63
2023/03/23 02:25:50;;;;;;;1.13;1.00;;;;;;;;;;8313175;28;20056;-63
2023/03/23 02:29:59;;;;;;;1.20;0.85;;;;;;;;;;8315841;28;20406;-63
2023/03/23 02:34:05;;;;;;;0.80;0.80;;;;;;;;;;8316795;28;20095;-63
2023/03/23 02:38:10;;;;;;;1.38;0.80;;;;;;;;;;8315900;28;20025;-63
2023/03/23 02:42:11;;;;;;;1.95;1.10;;;;;;;;;;8315985;28;20087;-63
2023/03/23 02:46:12;;;;;;;1.25;1.10;;;;;;;;;;8315864;28;20041;-63
2023/03/23 02:50:14;;;;;;;2.80;1.05;;;;;;;;;;8317014;28;20025;-63
2023/03/23 02:54:16;;;;;;;1.67;1.00;;;;;;;;;;8315949;28;20025;-64
2023/03/23 02:58:16;;;;;;;2.70;1.05;;;;;;;;;;8314248;28;20126;-63
2023/03/23 03:02:35;;;;;;;1.20;1.05;;;;;;;;;;8313360;28;20033;-63
2023/03/23 03:06:40;;;;;;;2.17;1.08;;;;;;;;;;8314241;28;20044;-63
2023/03/23 03:10:40;;;;;;;1.25;1.00;;;;;;;;;;8314547;28;20144;-63
2023/03/23 03:15:07;;;;;;;4.73;1.10;;;;;;;;;;8315409;28;20025;-63
2023/03/23 03:19:12;;;;;;;2.70;0.90;;;;;;;;;;8290933;28;20320;-63
2023/03/23 03:23:14;;;;;;;1.25;1.10;;;;;;;;;;8315198;28;20036;-63
2023/03/23 03:27:17;;;;;;;1.35;0.90;;;;;;;;;;8314762;28;20107;-63
2023/03/23 03:31:18;;;;;;;1.55;1.10;;;;;;;;;;8302212;28;20899;-63
2023/03/23 03:35:22;;;;;;;1.13;0.98;;;;;;;;;;8280320;28;20566;-63
2023/03/23 03:39:22;;;;;;;;;;;;;;;;;;8282836;28;20707;-63
2023/03/23 03:43:23;;;;;;;1.55;1.13;;;;;;;;;;8279489;28;19979;-63
2023/03/23 03:47:23;;;;;;;1.98;1.20;;;;;;;;;;8280943;28;20037;-63
2023/03/23 03:51:24;;;;;;;1.48;1.08;;;;;;;;;;8280702;28;20533;-63
2023/03/23 03:55:24;;;;;;;1.23;1.13;;;;;;;;;;8279122;28;20083;-63
2023/03/23 03:59:26;;;;;;;1.75;1.27;;;;;;;;;;8280889;28;20442;-63
2023/03/23 04:03:27;;;;;;;1.27;1.15;;;;;;;;;;8280291;28;20046;-63
2023/03/23 04:07:29;;;;;;;1.73;1.20;;;;;;;;;;8280027;28;20034;-63
2023/03/23 04:11:29;;;;;;;1.25;1.13;;;;;;;;;;8279516;28;20029;-63
2023/03/23 04:15:30;;;;;;;1.25;1.15;;;;;;;;;;8278825;28;20052;-63
2023/03/23 04:19:32;;;;;;;1.75;1.30;;;;;;;;;;8279001;28;20053;-63
2023/03/23 04:23:35;;;;;;;1.40;1.20;;;;;;;;;;8280217;28;20067;-63
2023/03/23 04:27:35;;;;;;;1.35;1.10;;;;;;;;;;8278779;28;20021;-63
2023/03/23 04:31:35;;;;;;;2.38;1.20;;;;;;;;;;8280126;28;20041;-63
2023/03/23 04:35:36;;;;;;;2.95;1.15;;;;;;;;;;8280387;28;20473;-63
2023/03/23 04:39:36;;;;;;;3.70;1.20;;;;;;;;;;8278545;28;20927;-63
2023/03/23 04:43:41;;;;;;;1.48;1.17;;;;;;;;;;8278780;28;20022;-63
2023/03/23 04:47:41;;;;;;;1.65;1.42;;;;;;;;;;8277992;28;20609;-63
2023/03/23 04:51:42;;;;;;;2.00;1.40;;;;;;;;;;8280169;28;20476;-63
2023/03/23 04:55:42;;;;;;;1.88;1.20;;;;;;;;;;8277534;28;20460;-63
2023/03/23 04:59:43;;;;;;;1.40;1.30;;;;;;;;;;8278163;28;20029;-63
2023/03/23 05:03:43;;;;;;;4.22;1.50;;;;;;;;;;8279246;28;20483;-63
2023/03/23 05:07:44;;;;;;;3.10;1.50;;;;;;;;;;8279564;28;20029;-63
2023/03/23 05:11:44;;;;;;;1.38;1.27;;;;;;;;;;8281486;28;20053;-63
2023/03/23 05:15:45;;;;;;;1.50;1.30;;;;;;;;;;8280799;28;20459;-63
2023/03/23 05:19:48;;;;;;;1.75;1.60;;;;;;;;;;8278583;28;20756;-63
2023/03/23 05:23:54;;;;;;;3.83;1.33;;;;;;;;;;8278958;28;20034;-63
2023/03/23 05:27:54;;;;;;;2.28;1.30;;;;;;;;;;8280681;28;20026;-63
2023/03/23 05:31:55;;;;;;;1.70;1.33;;;;;;;;;;8280333;28;20123;-63
2023/03/23 05:35:55;;;;;;;1.30;1.20;;;;;;;;;;8278591;28;20041;-63
2023/03/23 05:39:56;;;;;;;2.92;1.67;;;;;;;;;;8276982;28;20111;-63
2023/03/23 05:43:56;;;;;;;2.00;1.30;;;;;;;;;;8278638;28;20063;-63
2023/03/23 05:47:56;;;;;;;1.63;1.20;;;;;;;;;;8279107;28;20034;-63
2023/03/23 05:51:57;;;;;;;1.30;1.20;;;;;;;;;;8276434;28;20037;-63
2023/03/23 05:56:01;;;;;;;2.22;1.60;;;;;;;;;;8280796;28;20080;-63
2023/03/23 06:00:11;;;;;;;;;;;;;;;;;;8286070;28;20271;-63
2023/03/23 06:04:12;;;;;;;1.83;1.40;;;;;;;;;;8284468;28;20246;-63
2023/03/23 06:08:13;;;;;;;3.30;1.40;;;;;;;;;;8285655;28;20038;-63
2023/03/23 06:12:13;;;;;;;2.40;1.52;;;;;;;;;;8284374;28;20056;-63
2023/03/23 06:16:14;;;;;;;2.97;1.40;;;;;;;;;;8280540;28;20100;-63
2023/03/23 06:20:14;;;;;;;1.50;1.40;;;;;;;;;;8284246;28;20334;-63
2023/03/23 06:24:15;;;;;;;4.53;1.60;;;;;;;;;;8283682;28;20041;-63
2023/03/23 06:28:15;;;;;;;2.33;1.70;;;;;;;;;;8283415;28;20026;-63
2023/03/23 06:32:15;;;;;;;2.72;1.60;;;;;;;;;;8282177;28;20279;-63
2023/03/23 06:36:16;;;;;;;1.73;1.55;;;;;;;;;;8283073;28;20088;-63
2023/03/23 06:40:18;;;;;;;1.73;1.50;;;;;;;;;;8281835;28;20092;-63
2023/03/23 06:44:19;;;;;;;3.20;1.42;;;;;;;;;;8281747;28;20026;-63
2023/03/23 06:48:19;;;;;;;1.90;1.30;;;;;;;;;;8281319;28;20733;-63
2023/03/23 06:52:19;;;;;;;1.30;1.20;;;;;;;;;;8283710;28;20065;-63
2023/03/23 06:56:20;;;;;;;1.80;1.50;;;;;;;;;;8280529;28;20030;-64
2023/03/23 07:00:20;;;;;;;1.52;1.33;;;;;;;;;;8283561;28;20037;-63
2023/03/23 07:04:21;;;;;;;2.03;1.33;;;;;;;;;;8282881;28;20029;-63
2023/03/23 07:08:21;;;;;;;1.80;1.20;;;;;;;;;;8282438;28;20276;-63
2023/03/23 07:12:21;;;;;;;2.00;1.20;;;;;;;;;;8283569;28;20033;-63
2023/03/23 07:16:22;;;;;;;2.25;1.33;;;;;;;;;;8279760;28;20073;-63
2023/03/23 07:20:22;;;;;;;1.50;1.40;;;;;;;;;;8283477;28;20458;-63
2023/03/23 07:24:23;;;;;;;1.52;1.27;;;;;;;;;;8282135;28;20040;-63
2023/03/23 07:28:23;;;;;;;1.80;1.20;;;;;;;;;;8280275;28;20151;-63
2023/03/23 07:32:24;;;;;;;2.55;1.70;;;;;;;;;;8273773;28;20045;-63
2023/03/23 07:36:25;;;;;;;2.05;1.58;;;;;;;;;;8279095;28;20060;-64
2023/03/23 07:40:26;;;;;;;2.75;1.20;;;;;;;;;;8270289;28;20029;-63
2023/03/23 07:44:26;;;;;;;2.00;1.30;;;;;;;;;;8271413;28;20068;-63
2023/03/23 07:48:27;;;;;;;2.65;1.30;;;;;;;;;;8271380;28;20045;-63
2023/03/23 07:52:27;;;;;;;2.08;1.10;;;;;;;;;;8271463;28;20096;-63
2023/03/23 07:56:28;;;;;;;1.30;1.20;;;;;;;;;;8268751;28;20030;-63
2023/03/23 08:00:28;;;;;;;1.90;1.25;;;;;;;;;;8271139;28;20654;-63
2023/03/23 08:04:29;;;;;;;2.17;1.43;;;;;;;;;;8269858;28;20099;-63
2023/03/23 08:08:30;;;;;;;1.58;1.30;;;;;;;;;;8266855;28;20698;-63
2023/03/23 08:12:30;;;;;;;3.10;1.40;;;;;;;;;;8269832;28;21427;-63
2023/03/23 08:16:31;;;;;;;1.20;1.10;;;;;;;;;;8269174;28;20045;-63
2023/03/23 08:20:32;;;;;;;1.67;1.30;;;;;;;;;;8269742;28;20242;-63
2023/03/23 08:24:32;;;;;;;1.52;1.27;;;;;;;;;;8272271;28;20032;-63
2023/03/23 08:28:33;;;;;;;2.30;1.30;;;;;;;;;;8271662;28;20060;-63
2023/03/23 08:32:34;;;;;;;1.27;1.17;;;;;;;;;;8270157;28;20033;-63
2023/03/23 08:36:35;;;;;;;1.30;1.20;;;;;;;;;;8272589;28;20455;-63
2023/03/23 08:40:35;;;;;;;1.90;1.40;;;;;;;;;;8266646;28;20045;-63
2023/03/23 08:44:36;;;;;;;1.48;1.17;;;;;;;;;;8273470;28;20490;-63
2023/03/23 08:48:37;;;;;;;1.33;1.20;;;;;;;;;;8268544;28;20034;-63
2023/03/23 08:52:38;;;;;;;1.35;1.23;;;;;;;;;;8270118;28;20030;-63
2023/03/23 08:56:38;;;;;;;2.40;1.33;;;;;;;;;;8270481;28;20376;-63
2023/03/23 09:00:39;;;;;;;1.85;1.25;;;;;;;;;;8269423;28;20034;-63
2023/03/23 09:04:42;;;;;;;1.42;1.15;;;;;;;;;;8270519;28;20152;-63
2023/03/23 09:08:42;;;;;;;2.75;1.40;;;;;;;;;;8270516;28;20022;-64
2023/03/23 09:12:43;;;;;;;1.52;1.40;;;;;;;;;;8271001;28;20559;-63
2023/03/23 09:16:43;;;;;;;2.30;1.40;;;;;;;;;;8270601;28;20112;-63
2023/03/23 09:20:43;;;;;;;2.08;1.30;;;;;;;;;;8269237;28;20550;-63
2023/03/23 09:24:43;;;;;;;1.40;1.30;;;;;;;;;;8269778;28;20021;-63
2023/03/23 09:28:44;;;;;;;0.95;0.93;;;;;;;;;;8270797;28;20040;-63
2023/03/23 09:32:45;;;;;;;3.22;1.30;;;;;;;;;;8273038;28;20034;-63
2023/03/23 09:36:45;;;;;;;1.55;1.10;;;;;;;;;;8277074;28;20103;-64
2023/03/23 09:40:50;;;;;;;1.45;1.02;;;;;;;;;;8271967;28;20025;-63
2023/03/23 09:44:55;;;;;;;2.25;0.88;;;;;;;;;;8273553;28;20033;-64
2023/03/23 09:48:57;;;;;;;1.02;0.80;;;;;;;;;;8275019;28;20040;-64
2023/03/23 09:53:13;;;;;;;1.05;0.90;;;;;;;;;;8276572;28;20036;-63
2023/03/23 09:57:17;;;;;;;1.98;0.82;;;;;;;;;;8274079;28;20037;-63
2023/03/23 10:48:07;;;;;;;1.20;0.98;;;;;;;;;;8313599;28;20045;-65
2023/03/23 10:52:18;;;;;;;0.80;0.80;;;;;;;;;;8307665;28;20024;-65
2023/03/23 10:56:24;;;;;;;0.98;0.98;;;;;;;;;;8306672;28;20637;-65
2023/03/23 11:00:27;;;;;;;0.77;0.77;;;;;;;;;;8303249;28;20334;-65
2023/03/23 11:04:27;;;;;;;1.35;0.80;;;;;;;;;;8303635;28;20496;-65
2023/03/23 11:08:31;;;;;;;1.50;0.90;;;;;;;;;;8306039;28;20116;-65
2023/03/23 11:12:33;;;;;;;1.23;1.00;;;;;;;;;;8308958;28;20277;-65
2023/03/23 11:16:34;;;;;;;1.73;0.82;;;;;;;;;;8303771;28;20068;-65
2023/03/23 11:20:35;;;;;;;0.82;0.70;;;;;;;;;;8303876;28;20086;-65
2023/03/23 11:24:40;;;;;;;0.82;0.80;;;;;;;;;;8303606;28;20048;-65
2023/03/23 11:28:46;;;;;;;0.85;0.70;;;;;;;;;;8303664;28;20025;-65
2023/03/23 11:32:47;;;;;;;0.85;0.80;;;;;;;;;;8302193;28;20125;-65
2023/03/23 11:36:54;;;;;;;0.70;0.70;;;;;;;;;;8302011;28;20025;-65
2023/03/23 11:40:55;;;;;;;1.25;0.70;;;;;;;;;;8302788;28;20033;-65
2023/03/23 11:45:12;;;;;;;1.10;0.90;;;;;;;;;;8301985;28;20578;-65
2023/03/23 11:49:37;;;;;;;1.75;0.80;;;;;;;;;;8302193;28;20030;-65
2023/03/23 11:53:38;;;;;;;0.85;0.75;;;;;;;;;;8301861;28;20033;-65
2023/03/23 11:57:38;;;;;;;1.10;0.80;;;;;;;;;;8301749;28;20326;-65
2023/03/23 12:01:54;;;;;;;3.28;0.93;;;;;;;;;;8299282;28;20515;-65
2023/03/23 12:05:54;;;;;;;1.25;0.80;;;;;;;;;;8301364;28;20033;-65
2023/03/23 12:10:13;;;;;;;0.70;0.70;;;;;;;;;;8304020;28;20107;-65
2023/03/23 12:14:20;;;;;;;0.77;0.77;;;;;;;;;;8294549;28;20272;-66
2023/03/23 12:18:30;;;;;;;0.90;0.85;;;;;;;;;;8294557;28;20044;-65
2023/03/23 12:22:46;;;;;;;1.25;0.82;;;;;;;;;;8295964;28;20017;-65
2023/03/23 12:27:04;;;;;;;2.35;0.80;;;;;;;;;;8300613;28;20438;-65
2023/03/23 12:31:08;;;;;;;1.13;0.82;;;;;;;;;;8298938;28;20037;-65
2023/03/23 12:35:09;;;;;;;2.00;1.00;;;;;;;;;;8307064;28;20042;-65
2023/03/23 12:39:12;;;;;;;1.00;0.80;;;;;;;;;;8307291;28;20036;-65
2023/03/23 12:43:33;;;;;;;1.77;1.10;;;;;;;;;;8286633;28;20628;-65
2023/03/23 12:47:46;;;;;;;1.73;0.93;;;;;;;;;;8302691;28;20037;-65
2023/03/23 12:52:11;;;;;;;1.00;0.90;;;;;;;;;;8301755;28;20033;-65
2023/03/23 12:56:22;;;;;;;0.70;0.70;;;;;;;;;;8311623;28;20124;-65
2023/03/23 13:00:32;;;;;;;0.80;0.80;;;;;;;;;;8291155;28;20589;-65
2023/03/23 13:04:37;;;;;;;1.33;0.80;;;;;;;;;;8295055;28;20037;-65
2023/03/23 13:08:41;;;;;;;0.73;0.73;;;;;;;;;;8287600;28;20028;-65
2023/03/23 13:12:41;;;;;;;0.95;0.80;;;;;;;;;;8297875;28;20225;-64
2023/03/23 13:16:49;;;;;;;0.83;0.80;;;;;;;;;;8305561;28;20068;-65
2023/03/23 13:21:28;;;;;;;0.70;0.70;;;;;;;;;;8304517;28;20059;-65
2023/03/23 13:25:34;;;;;;;0.70;0.70;;;;;;;;;;8207119;28;20041;-65
2023/03/23 13:29:34;;;;;;;0.70;0.70;;;;;;;;;;8250814;28;20554;-66
2023/03/23 13:33:36;;;;;;;1.30;0.88;;;;;;;;;;8298798;28;20119;-65
2023/03/23 13:37:41;;;;;;;1.13;0.60;;;;;;;;;;8298462;28;20538;-65
2023/03/23 13:42:07;;;;;;;1.70;0.65;;;;;;;;;;8297757;28;20025;-65
2023/03/23 13:46:09;;;;;;;0.63;0.63;;;;;;;;;;8274832;28;20505;-65
2023/03/23 13:50:10;;;;;;;3.53;1.20;;;;;;;;;;8298654;28;20018;-65
2023/03/23 13:54:23;;;;;;;1.30;0.77;;;;;;;;;;8296942;28;20453;-65
2023/03/23 13:58:24;;;;;;;0.80;0.80;;;;;;;;;;8297332;28;20051;-65
2023/03/23 14:02:28;;;;;;;0.80;0.80;;;;;;;;;;8299331;28;20091;-65
2023/03/23 14:06:33;;;;;;;1.00;0.80;;;;;;;;;;8299430;28;20017;-65
2023/03/23 14:10:36;;;;;;;0.90;0.80;;;;;;;;;;8301629;28;20118;-65
2023/03/23 14:14:42;;;;;;;0.70;0.70;;;;;;;;;;8299794;28;20538;-65
2023/03/23 14:18:48;;;;;;;2.25;0.80;;;;;;;;;;8303649;28;20767;-65
2023/03/23 14:22:52;;;;;;;1.77;1.00;;;;;;;;;;8304556;28;20025;-65
2023/03/23 14:27:00;;;;;;;0.95;0.80;;;;;;;;;;8309733;28;20609;-65
2023/03/23 14:31:01;;;;;;;2.35;1.02;;;;;;;;;;8314664;28;20037;-65
2023/03/23 14:35:06;;;;;;;2.70;0.82;;;;;;;;;;8303615;28;20013;-65
2023/03/23 14:39:14;;;;;;;1.90;1.70;;;;;;;;;;8304014;28;20033;-65
2023/03/23 14:43:16;;;;;;;1.40;0.90;;;;;;;;;;8305204;28;20037;-65
2023/03/23 14:47:19;;;;;;;3.95;1.00;;;;;;;;;;8310313;28;20037;-64
2023/03/23 14:51:20;;;;;;;1.75;1.00;;;;;;;;;;8308370;28;20029;-65
2023/03/23 14:55:21;;;;;;;0.82;0.82;;;;;;;;;;8303022;28;20612;-65
2023/03/23 14:59:21;;;;;;;1.23;1.15;;;;;;;;;;8300064;28;20513;-65
2023/03/23 15:03:22;;;;;;;1.20;1.10;;;;;;;;;;8294504;28;20402;-65
2023/03/23 15:07:25;;;;;;;2.05;0.90;;;;;;;;;;8294321;28;20054;-65
2023/03/23 15:11:35;;;;;;;1.30;1.20;;;;;;;;;;8303378;28;20068;-65
2023/03/23 15:15:36;;;;;;;1.20;1.10;;;;;;;;;;8293273;28;20053;-65
2023/03/23 15:19:41;;;;;;;1.08;1.00;;;;;;;;;;8302526;28;20033;-65
2023/03/23 15:23:43;;;;;;;0.95;0.82;;;;;;;;;;8305339;28;20429;-65
2023/03/23 15:27:48;;;;;;;1.30;1.08;;;;;;;;;;8300634;28;20017;-65
2023/03/23 15:31:50;;;;;;;2.00;1.00;;;;;;;;;;8302859;28;20424;-64
2023/03/23 15:35:50;;;;;;;1.00;0.90;;;;;;;;;;8303198;28;20037;-65
2023/03/23 15:39:50;;;;;;;2.28;1.10;;;;;;;;;;8297133;28;20031;-65
2023/03/23 15:43:52;;;;;;;1.30;1.20;;;;;;;;;;8300359;28;20119;-65
2023/03/23 15:47:53;;;;;;;1.17;1.08;;;;;;;;;;8300127;28;20595;-65
2023/03/23 15:51:53;;;;;;;1.30;1.10;;;;;;;;;;8296117;28;20716;-65
2023/03/23 15:55:53;;;;;;;1.63;1.17;;;;;;;;;;8301396;28;20021;-65
2023/03/23 15:59:53;;;;;;;1.10;1.00;;;;;;;;;;8300717;28;20024;-65
2023/03/23 16:04:03;;;;;;;1.13;1.03;;;;;;;;;;8300346;28;20049;-65
2023/03/23 16:08:03;;;;;;;1.08;0.95;;;;;;;;;;8298181;28;20605;-65
2023/03/23 16:12:03;;;;;;;2.27;1.10;;;;;;;;;;8301101;28;20077;-65
2023/03/23 16:16:05;;;;;;;1.30;1.10;;;;;;;;;;8299148;28;20291;-65
2023/03/23 16:20:12;;;;;;;1.77;1.00;;;;;;;;;;8299620;28;20106;-65
2023/03/23 16:24:13;;;;;;;2.03;1.30;;;;;;;;;;8297918;28;20025;-65
2023/03/23 16:28:13;;;;;;;2.17;1.30;;;;;;;;;;8297231;28;20021;-65
2023/03/23 16:32:13;;;;;;;1.38;0.90;;;;;;;;;;8299264;28;20704;-66
2023/03/23 16:36:14;;;;;;;1.40;1.00;;;;;;;;;;8300731;28;20120;-65
2023/03/23 16:40:14;;;;;;;1.57;1.00;;;;;;;;;;8299637;28;20029;-65
2023/03/23 16:44:15;;;;;;;2.33;1.13;;;;;;;;;;8298191;28;20290;-65
2023/03/23 16:48:15;;;;;;;1.40;1.30;;;;;;;;;;8296997;28;20686;-65
2023/03/23 16:52:16;;;;;;;4.30;3.13;;;;;;;;;;8298942;28;20410;-65
2023/03/23 16:56:16;;;;;;;2.25;1.33;;;;;;;;;;8297281;28;20033;-65
2023/03/23 17:00:20;;;;;;;2.00;1.02;;;;;;;;;;8297885;28;20432;-65
2023/03/23 17:04:21;;;;;;;2.08;1.60;;;;;;;;;;8296010;28;20024;-65
2023/03/23 17:08:21;;;;;;;2.47;1.50;;;;;;;;;;8296832;28;20044;-65
2023/03/23 17:12:21;;;;;;;1.55;1.45;;;;;;;;;;8293148;28;20149;-65
2023/03/23 17:16:21;;;;;;;3.33;1.40;;;;;;;;;;8298554;28;20041;-65
2023/03/23 17:20:22;;;;;;;1.63;1.20;;;;;;;;;;8295938;28;20079;-65
2023/03/23 17:24:22;;;;;;;3.10;1.50;;;;;;;;;;8299703;28;20029;-65
2023/03/23 17:28:22;;;;;;;1.50;1.20;;;;;;;;;;8298290;28;20067;-65
2023/03/23 17:32:24;;;;;;;8.80;4.80;;;;;;;;;;8297378;28;20041;-66
2023/03/23 17:36:24;;;;;;;5.05;2.92;;;;;;;;;;8300119;28;20077;-65
2023/03/23 17:40:24;;;;;;;1.67;1.40;;;;;;;;;;8295836;28;20115;-65
2023/03/23 17:44:25;;;;;;;1.20;1.10;;;;;;;;;;8282216;28;20541;-65
2023/03/23 17:48:25;;;;;;;1.33;1.10;;;;;;;;;;8295999;28;20037;-66
2023/03/23 17:52:25;;;;;;;2.10;1.00;;;;;;;;;;8302703;28;20306;-65
2023/03/23 17:56:26;;;;;;;1.85;1.20;;;;;;;;;;8304216;28;20037;-66
2023/03/23 18:00:26;;;;;;;2.10;1.20;;;;;;;;;;8298845;28;20044;-65
2023/03/23 18:04:26;;;;;;;1.52;1.30;;;;;;;;;;8297951;28;20302;-65
2023/03/23 18:08:27;;;;;;;1.50;1.40;;;;;;;;;;8304646;28;20104;-65
2023/03/23 18:12:27;;;;;;;2.25;1.50;;;;;;;;;;8297972;28;20136;-65
2023/03/23 18:16:27;;;;;;;1.25;1.10;;;;;;;;;;8303211;28;20473;-65
2023/03/23 18:20:28;;;;;;;1.50;1.40;;;;;;;;;;8301004;28;20025;-65
2023/03/23 18:24:28;;;;;;;1.15;1.05;;;;;;;;;;8303375;28;20028;-65
2023/03/23 18:28:28;;;;;;;1.90;1.05;;;;;;;;;;8301808;28;20613;-65
2023/03/23 18:32:28;;;;;;;1.55;1.10;;;;;;;;;;8305628;28;20507;-65
2023/03/23 18:36:29;;;;;;;3.28;1.30;;;;;;;;;;8301947;28;20414;-65
2023/03/23 18:40:29;;;;;;;1.10;1.05;;;;;;;;;;8302725;28;20060;-65
2023/03/23 18:44:29;;;;;;;1.15;0.90;;;;;;;;;;8300557;28;20298;-65
2023/03/23 18:48:30;;;;;;;1.73;1.35;;;;;;;;;;8300170;28;20118;-65
2023/03/23 18:52:30;;;;;;;1.20;1.08;;;;;;;;;;8300318;28;20152;-65
2023/03/23 18:56:30;;;;;;;1.85;1.20;;;;;;;;;;8302005;28;20046;-66
2023/03/23 19:00:32;;;;;;;1.15;1.08;;;;;;;;;;8302877;28;20048;-65
2023/03/23 19:04:32;;;;;;;1.40;1.30;;;;;;;;;;8302030;28;20310;-65
2023/03/23 19:08:33;;;;;;;9.27;6.45;;;;;;;;;;8303140;28;20021;-65
2023/03/23 19:12:33;;;;;;;20.08;12.65;;;;;;;;;;8309797;28;20036;-65
2023/03/23 19:16:37;;;;;;;11.18;7.43;;;;;;;;;;8304732;28;20045;-65
2023/03/23 19:20:37;;;;;;;10.32;8.13;;;;;;;;;;8306531;28;20033;-65
2023/03/23 19:24:37;;;;;;;10.77;8.05;;;;;;;;;;8305811;28;20130;-65
2023/03/23 19:28:37;;;;;;;8.70;6.45;;;;;;;;;;8300510;28;20474;-65
2023/03/23 19:32:38;;;;;;;7.82;5.95;;;;;;;;;;8298271;28;20627;-64
2023/03/23 19:36:38;;;;;;;5.37;4.27;;;;;;;;;;8300738;28;20025;-65
2023/03/23 19:40:39;;;;;;;3.78;3.30;;;;;;;;;;8299340;28;20072;-65
2023/03/23 19:44:40;;;;;;;6.82;2.85;;;;;;;;;;8300216;28;20423;-65
2023/03/23 19:48:40;;;;;;;3.53;2.85;;;;;;;;;;8298746;28;20376;-65
2023/03/23 19:52:40;;;;;;;5.37;4.30;;;;;;;;;;8300424;28;20032;-65
2023/03/23 19:56:42;;;;;;;7.80;4.68;;;;;;;;;;8300919;28;20554;-65
2023/03/23 20:00:42;;;;;;;5.65;4.75;;;;;;;;;;8299553;28;20130;-65
2023/03/23 20:04:42;;;;;;;7.38;4.78;;;;;;;;;;8299785;28;20049;-65
2023/03/23 20:08:44;;;;;;;11.57;6.95;;;;;;;;;;8300168;28;20977;-65
2023/03/23 20:12:44;;;;;;;6.55;4.63;;;;;;;;;;8299515;28;20025;-65
2023/03/23 20:16:44;;;;;;;5.75;3.90;;;;;;;;;;8289725;28;20448;-65
2023/03/23 20:20:44;;;;;;;5.88;4.80;;;;;;;;;;8298416;28;20156;-65
2023/03/23 20:24:46;;;;;;;5.20;4.05;;;;;;;;;;8300142;28;20052;-65
2023/03/23 20:28:46;;;;;;;5.22;3.08;;;;;;;;;;8300107;28;20022;-65
2023/03/23 20:32:46;;;;;;;3.95;2.88;;;;;;;;;;8293560;28;20044;-65
2023/03/23 20:36:48;;;;;;;4.90;3.05;;;;;;;;;;8300242;28;20092;-65
2023/03/23 20:40:49;;;;;;;3.40;2.60;;;;;;;;;;8297280;28;20579;-65
2023/03/23 20:44:49;;;;;;;5.90;2.50;;;;;;;;;;8298784;28;20025;-65
2023/03/23 20:48:50;;;;;;;4.68;2.72;;;;;;;;;;8294911;28;20045;-66
2023/03/23 20:52:50;;;;;;;4.90;2.72;;;;;;;;;;8301097;28;20080;-65
2023/03/23 20:56:52;;;;;;;4.55;2.80;;;;;;;;;;8298068;28;20053;-66
2023/03/23 21:00:55;;;;;;;4.22;2.60;;;;;;;;;;8298181;28;20037;-65
2023/03/23 21:04:57;;;;;;;4.30;2.50;;;;;;;;;;8293640;28;20135;-65
2023/03/23 21:08:57;;;;;;;2.53;2.30;;;;;;;;;;8298003;28;20370;-66
2023/03/23 21:12:57;;;;;;;2.75;2.40;;;;;;;;;;8298772;28;20061;-65
2023/03/23 21:17:00;;;;;;;2.55;2.28;;;;;;;;;;8297697;28;20289;-65
2023/03/23 21:21:00;;;;;;;3.72;2.70;;;;;;;;;;8298891;28;20053;-65
2023/03/23 21:25:01;;;;;;;3.70;2.55;;;;;;;;;;8298852;28;20072;-65
2023/03/23 21:29:03;;;;;;;2.65;2.33;;;;;;;;;;8305559;28;20022;-65
2023/03/23 21:33:03;;;;;;;3.65;2.70;;;;;;;;;;8304612;28;20490;-65
2023/03/23 21:37:03;;;;;;;3.00;2.35;;;;;;;;;;8305319;28;20024;-65
2023/03/23 21:41:08;;;;;;;3.28;2.63;;;;;;;;;;8302993;28;20608;-65
2023/03/23 21:45:11;;;;;;;3.05;2.40;;;;;;;;;;8304735;28;20372;-65
2023/03/23 21:49:13;;;;;;;3.95;2.38;;;;;;;;;;8304633;28;20025;-66
2023/03/23 21:53:17;;;;;;;2.30;2.10;;;;;;;;;;8306281;28;20049;-65
2023/03/23 21:57:17;;;;;;;2.63;2.38;;;;;;;;;;8309707;28;20056;-65
2023/03/23 22:01:18;;;;;;;2.30;2.08;;;;;;;;;;8312683;28;20493;-65
2023/03/23 22:05:19;;;;;;;4.25;2.45;;;;;;;;;;8312653;28;20386;-65
2023/03/23 22:09:19;;;;;;;3.30;2.13;;;;;;;;;;8315934;28;20033;-65
2023/03/23 22:13:20;;;;;;;4.47;1.92;;;;;;;;;;8315363;28;20029;-65
2023/03/23 22:17:20;;;;;;;2.20;1.90;;;;;;;;;;8315553;28;20037;-65
2023/03/23 22:21:21;;;;;;;2.38;2.03;;;;;;;;;;8313443;28;20025;-65
2023/03/23 22:25:21;;;;;;;2.15;1.75;;;;;;;;;;8313035;28;20075;-65
2023/03/23 22:29:21;;;;;;;5.77;2.10;;;;;;;;;;8313086;28;20910;-65
2023/03/23 22:33:25;;;;;;;2.30;2.10;;;;;;;;;;8313146;28;20852;-65
2023/03/23 22:37:25;;;;;;;3.85;2.20;;;;;;;;;;8312213;28;20171;-65
2023/03/23 22:41:31;;;;;;;2.60;2.40;;;;;;;;;;8305278;28;20520;-65
2023/03/23 22:45:31;;;;;;;2.78;2.42;;;;;;;;;;8317293;28;20052;-65
2023/03/23 22:49:31;;;;;;;3.25;2.47;;;;;;;;;;8315534;28;20030;-65
2023/03/23 22:53:31;;;;;;;2.67;2.15;;;;;;;;;;8315936;28;20059;-65
2023/03/23 22:57:32;;;;;;;3.15;2.03;;;;;;;;;;8312828;28;20017;-65
2023/03/23 23:01:32;;;;;;;4.93;2.20;;;;;;;;;;8315675;28;20042;-65
2023/03/23 23:05:33;;;;;;;2.28;2.08;;;;;;;;;;8314087;28;20359;-65
2023/03/23 23:09:33;;;;;;;2.05;1.85;;;;;;;;;;8313287;28;20021;-65
2023/03/23 23:13:33;;;;;;;2.15;1.90;;;;;;;;;;8312553;28;20110;-65
2023/03/23 23:17:37;;;;;;;3.43;1.90;;;;;;;;;;8313978;28;20863;-65
2023/03/23 23:21:37;;;;;;;1.95;1.85;;;;;;;;;;8312859;28;20459;-65
2023/03/23 23:25:37;;;;;;;2.45;2.08;;;;;;;;;;8311859;28;20464;-65
2023/03/23 23:29:39;;;;;;;1.70;1.60;;;;;;;;;;8310529;28;20025;-65
2023/03/23 23:33:39;;;;;;;2.20;1.95;;;;;;;;;;8312674;28;21254;-65
2023/03/23 23:37:40;;;;;;;3.05;1.92;;;;;;;;;;8312216;28;20056;-65
2023/03/23 23:41:40;;;;;;;2.15;1.92;;;;;;;;;;8311356;28;20556;-65
2023/03/23 23:45:40;;;;;;;2.78;2.00;;;;;;;;;;8314015;28;20098;-65
2023/03/23 23:49:40;;;;;;;3.10;1.95;;;;;;;;;;8311478;28;20470;-65
2023/03/23 23:53:43;;;;;;;2.38;1.75;;;;;;;;;;8312447;28;20071;-65
2023/03/23 23:57:43;;;;;;;2.15;1.80;;;;;;;;;;8312840;28;20024;-65
